sensor_id;sensor_type;location;lat;lon;timestamp;P1;durP1;ratioP1;P2;durP2;ratioP2
45863;SDS011;31579;52.354;16.974;2022-08-18T00:04:03;18.50;;;14.30;;
45863;SDS011;31579;52.354;16.974;2022-08-18T00:09:04;18.50;;;14.30;;
45863;SDS011;31579;52.354;16.974;2022-08-18T00:14:03;17.80;;;13.30;;
45863;SDS011;31579;52.354;16.974;2022-08-18T00:19:03;17.80;;;13.30;;
45863;SDS011;31579;52.354;16.974;2022-08-18T00:24:03;15.90;;;12.70;;
45863;SDS011;31579;52.354;16.974;2022-08-18T00:29:03;15.90;;;12.70;;
45863;SDS011;31579;52.354;16.974;2022-08-18T00:34:03;16.20;;;13.20;;
45863;SDS011;31579;52.354;16.974;2022-08-18T00:39:03;16.20;;;13.20;;
45863;SDS011;31579;52.354;16.974;2022-08-18T00:44:03;19.90;;;13.70;;
45863;SDS011;31579;52.354;16.974;2022-08-18T00:49:06;19.90;;;13.70;;
45863;SDS011;31579;52.354;16.974;2022-08-18T00:52:17;18.20;;;15.20;;
45863;SDS011;31579;52.354;16.974;2022-08-18T00:57:15;18.20;;;15.20;;
45863;SDS011;31579;52.354;16.974;2022-08-18T01:02:18;20.00;;;15.80;;
45863;SDS011;31579;52.354;16.974;2022-08-18T01:07:17;20.00;;;15.80;;
45863;SDS011;31579;52.354;16.974;2022-08-18T01:12:15;17.00;;;13.70;;
45863;SDS011;31579;52.354;16.974;2022-08-18T01:17:15;17.00;;;13.70;;
45863;SDS011;31579;52.354;16.974;2022-08-18T01:27:16;23.60;;;18.00;;
45863;SDS011;31579;52.354;16.974;2022-08-18T01:32:17;26.30;;;20.00;;
45863;SDS011;31579;52.354;16.974;2022-08-18T01:34:10;26.30;;;20.00;;
45863;SDS011;31579;52.354;16.974;2022-08-18T01:39:10;26.30;;;20.00;;
45863;SDS011;31579;52.354;16.974;2022-08-18T01:44:08;27.20;;;20.90;;
45863;SDS011;31579;52.354;16.974;2022-08-18T01:49:08;27.20;;;20.90;;
45863;SDS011;31579;52.354;16.974;2022-08-18T01:56:19;27.50;;;23.00;;
45863;SDS011;31579;52.354;16.974;2022-08-18T02:01:19;27.50;;;23.00;;
45863;SDS011;31579;52.354;16.974;2022-08-18T02:06:19;29.40;;;25.40;;
45863;SDS011;31579;52.354;16.974;2022-08-18T02:11:19;29.40;;;25.40;;
45863;SDS011;31579;52.354;16.974;2022-08-18T02:16:19;32.50;;;29.00;;
45863;SDS011;31579;52.354;16.974;2022-08-18T02:22:03;37.80;;;34.10;;
45863;SDS011;31579;52.354;16.974;2022-08-18T02:27:03;37.80;;;34.10;;
45863;SDS011;31579;52.354;16.974;2022-08-18T02:32:03;41.90;;;38.00;;
45863;SDS011;31579;52.354;16.974;2022-08-18T02:37:03;41.90;;;38.00;;
45863;SDS011;31579;52.354;16.974;2022-08-18T02:42:03;42.70;;;38.70;;
45863;SDS011;31579;52.354;16.974;2022-08-18T02:47:07;42.70;;;38.70;;
45863;SDS011;31579;52.354;16.974;2022-08-18T02:52:03;43.10;;;38.90;;
45863;SDS011;31579;52.354;16.974;2022-08-18T03:02:06;44.20;;;40.20;;
45863;SDS011;31579;52.354;16.974;2022-08-18T03:07:04;44.20;;;40.20;;
45863;SDS011;31579;52.354;16.974;2022-08-18T03:12:03;46.90;;;42.40;;
45863;SDS011;31579;52.354;16.974;2022-08-18T03:17:05;46.90;;;42.40;;
45863;SDS011;31579;52.354;16.974;2022-08-18T03:22:03;31.40;;;28.30;;
45863;SDS011;31579;52.354;16.974;2022-08-18T03:27:04;31.40;;;28.30;;
45863;SDS011;31579;52.354;16.974;2022-08-18T03:32:04;25.50;;;20.70;;
45863;SDS011;31579;52.354;16.974;2022-08-18T03:37:03;25.50;;;20.70;;
45863;SDS011;31579;52.354;16.974;2022-08-18T03:42:03;44.90;;;40.50;;
45863;SDS011;31579;52.354;16.974;2022-08-18T03:47:06;44.90;;;40.50;;
45863;SDS011;31579;52.354;16.974;2022-08-18T03:52:03;31.80;;;27.80;;
45863;SDS011;31579;52.354;16.974;2022-08-18T03:57:03;31.80;;;27.80;;
45863;SDS011;31579;52.354;16.974;2022-08-18T04:02:03;31.00;;;27.60;;
45863;SDS011;31579;52.354;16.974;2022-08-18T04:12:06;38.30;;;34.50;;
45863;SDS011;31579;52.354;16.974;2022-08-18T04:17:03;38.30;;;34.50;;
45863;SDS011;31579;52.354;16.974;2022-08-18T04:22:03;26.50;;;23.00;;
45863;SDS011;31579;52.354;16.974;2022-08-18T04:27:03;26.50;;;23.00;;
45863;SDS011;31579;52.354;16.974;2022-08-18T04:32:03;28.70;;;23.70;;
45863;SDS011;31579;52.354;16.974;2022-08-18T04:37:06;28.70;;;23.70;;
45863;SDS011;31579;52.354;16.974;2022-08-18T04:42:03;25.20;;;19.60;;
45863;SDS011;31579;52.354;16.974;2022-08-18T04:47:03;25.20;;;19.60;;
45863;SDS011;31579;52.354;16.974;2022-08-18T04:52:03;46.50;;;41.70;;
45863;SDS011;31579;52.354;16.974;2022-08-18T04:55:11;46.50;;;41.70;;
45863;SDS011;31579;52.354;16.974;2022-08-18T05:00:09;46.50;;;41.70;;
45863;SDS011;31579;52.354;16.974;2022-08-18T05:01:48;46.50;;;41.70;;
45863;SDS011;31579;52.354;16.974;2022-08-18T05:06:46;50.10;;;45.20;;
45863;SDS011;31579;52.354;16.974;2022-08-18T05:11:46;54.80;;;49.90;;
45863;SDS011;31579;52.354;16.974;2022-08-18T05:16:46;54.80;;;49.90;;
45863;SDS011;31579;52.354;16.974;2022-08-18T05:21:47;56.70;;;51.40;;
45863;SDS011;31579;52.354;16.974;2022-08-18T05:26:47;56.70;;;51.40;;
45863;SDS011;31579;52.354;16.974;2022-08-18T05:31:47;51.60;;;46.60;;
45863;SDS011;31579;52.354;16.974;2022-08-18T05:41:49;37.80;;;31.60;;
45863;SDS011;31579;52.354;16.974;2022-08-18T05:46:51;37.80;;;31.60;;
45863;SDS011;31579;52.354;16.974;2022-08-18T05:51:48;37.80;;;30.50;;
45863;SDS011;31579;52.354;16.974;2022-08-18T05:57:08;37.80;;;30.50;;
45863;SDS011;31579;52.354;16.974;2022-08-18T06:07:07;35.80;;;28.70;;
45863;SDS011;31579;52.354;16.974;2022-08-18T06:12:19;33.00;;;26.50;;
45863;SDS011;31579;52.354;16.974;2022-08-18T06:17:09;33.00;;;26.50;;
45863;SDS011;31579;52.354;16.974;2022-08-18T06:32:13;33.30;;;25.00;;
45863;SDS011;31579;52.354;16.974;2022-08-18T06:37:08;33.30;;;25.00;;
45863;SDS011;31579;52.354;16.974;2022-08-18T06:38:29;33.30;;;25.00;;
45863;SDS011;31579;52.354;16.974;2022-08-18T06:43:22;29.70;;;23.00;;
45863;SDS011;31579;52.354;16.974;2022-08-18T06:53:22;30.70;;;23.00;;
45863;SDS011;31579;52.354;16.974;2022-08-18T06:58:25;30.70;;;23.00;;
45863;SDS011;31579;52.354;16.974;2022-08-18T07:13:25;25.00;;;22.30;;
45863;SDS011;31579;52.354;16.974;2022-08-18T07:18:26;25.00;;;22.30;;
45863;SDS011;31579;52.354;16.974;2022-08-18T07:23:27;31.30;;;21.40;;
45863;SDS011;31579;52.354;16.974;2022-08-18T07:33:23;28.60;;;21.10;;
45863;SDS011;31579;52.354;16.974;2022-08-18T07:43:24;27.80;;;20.70;;
45863;SDS011;31579;52.354;16.974;2022-08-18T07:48:24;27.80;;;20.70;;
45863;SDS011;31579;52.354;16.974;2022-08-18T08:17:11;24.40;;;18.60;;
45863;SDS011;31579;52.354;16.974;2022-08-18T08:22:11;21.50;;;17.80;;
45863;SDS011;31579;52.354;16.974;2022-08-18T08:37:11;21.80;;;19.10;;
45863;SDS011;31579;52.354;16.974;2022-08-18T08:47:08;22.90;;;16.20;;
45863;SDS011;31579;52.354;16.974;2022-08-18T08:52:17;20.80;;;16.50;;
45863;SDS011;31579;52.354;16.974;2022-08-18T08:57:05;20.80;;;16.50;;
45863;SDS011;31579;52.354;16.974;2022-08-18T09:07:08;22.50;;;14.80;;
45863;SDS011;31579;52.354;16.974;2022-08-18T09:09:14;22.50;;;14.80;;
45863;SDS011;31579;52.354;16.974;2022-08-18T09:19:27;18.80;;;13.40;;
45863;SDS011;31579;52.354;16.974;2022-08-18T09:44:09;16.00;;;12.50;;
45863;SDS011;31579;52.354;16.974;2022-08-18T09:54:09;15.70;;;12.00;;
45863;SDS011;31579;52.354;16.974;2022-08-18T09:59:07;15.70;;;12.00;;
45863;SDS011;31579;52.354;16.974;2022-08-18T10:09:15;17.40;;;12.60;;
45863;SDS011;31579;52.354;16.974;2022-08-18T10:14:18;15.40;;;11.50;;
45863;SDS011;31579;52.354;16.974;2022-08-18T10:29:08;12.70;;;11.30;;
45863;SDS011;31579;52.354;16.974;2022-08-18T10:34:09;15.80;;;11.20;;
45863;SDS011;31579;52.354;16.974;2022-08-18T10:39:09;15.80;;;11.20;;
45863;SDS011;31579;52.354;16.974;2022-08-18T10:44:07;16.70;;;10.90;;
45863;SDS011;31579;52.354;16.974;2022-08-18T10:59:11;13.50;;;10.30;;
45863;SDS011;31579;52.354;16.974;2022-08-18T11:08:04;10.80;;;9.70;;
45863;SDS011;31579;52.354;16.974;2022-08-18T11:18:50;12.20;;;10.10;;
45863;SDS011;31579;52.354;16.974;2022-08-18T11:23:02;10.20;;;9.20;;
45863;SDS011;31579;52.354;16.974;2022-08-18T11:30:25;10.20;;;9.20;;
45863;SDS011;31579;52.354;16.974;2022-08-18T11:35:33;10.70;;;9.40;;
45863;SDS011;31579;52.354;16.974;2022-08-18T11:40:29;10.70;;;9.40;;
45863;SDS011;31579;52.354;16.974;2022-08-18T11:45:23;12.70;;;10.10;;
45863;SDS011;31579;52.354;16.974;2022-08-18T12:01:58;11.40;;;10.00;;
45863;SDS011;31579;52.354;16.974;2022-08-18T12:06:59;14.90;;;11.50;;
45863;SDS011;31579;52.354;16.974;2022-08-18T12:12:00;14.90;;;11.50;;
45863;SDS011;31579;52.354;16.974;2022-08-18T12:17:01;12.40;;;10.90;;
45863;SDS011;31579;52.354;16.974;2022-08-18T12:21:59;12.40;;;10.90;;
45863;SDS011;31579;52.354;16.974;2022-08-18T12:26:58;12.10;;;9.90;;
45863;SDS011;31579;52.354;16.974;2022-08-18T12:31:58;12.10;;;9.90;;
45863;SDS011;31579;52.354;16.974;2022-08-18T12:36:58;12.10;;;9.40;;
45863;SDS011;31579;52.354;16.974;2022-08-18T12:41:58;12.10;;;9.40;;
45863;SDS011;31579;52.354;16.974;2022-08-18T12:46:58;10.70;;;9.50;;
45863;SDS011;31579;52.354;16.974;2022-08-18T12:50:10;10.70;;;9.50;;
45863;SDS011;31579;52.354;16.974;2022-08-18T12:55:08;15.90;;;9.90;;
45863;SDS011;31579;52.354;16.974;2022-08-18T13:00:09;15.90;;;9.90;;
45863;SDS011;31579;52.354;16.974;2022-08-18T13:05:09;9.90;;;8.90;;
45863;SDS011;31579;52.354;16.974;2022-08-18T13:10:08;9.90;;;8.90;;
45863;SDS011;31579;52.354;16.974;2022-08-18T13:15:09;14.40;;;9.30;;
45863;SDS011;31579;52.354;16.974;2022-08-18T13:20:10;14.40;;;9.30;;
45863;SDS011;31579;52.354;16.974;2022-08-18T13:25:10;11.00;;;9.70;;
45863;SDS011;31579;52.354;16.974;2022-08-18T13:30:10;11.00;;;9.70;;
45863;SDS011;31579;52.354;16.974;2022-08-18T13:35:10;9.80;;;8.80;;
45863;SDS011;31579;52.354;16.974;2022-08-18T13:40:09;9.80;;;8.80;;
45863;SDS011;31579;52.354;16.974;2022-08-18T13:45:09;14.00;;;10.90;;
45863;SDS011;31579;52.354;16.974;2022-08-18T13:50:09;14.00;;;10.90;;
45863;SDS011;31579;52.354;16.974;2022-08-18T13:55:10;12.80;;;11.30;;
45863;SDS011;31579;52.354;16.974;2022-08-18T14:00:09;12.80;;;11.30;;
45863;SDS011;31579;52.354;16.974;2022-08-18T14:05:09;13.90;;;11.80;;
45863;SDS011;31579;52.354;16.974;2022-08-18T14:10:09;13.90;;;11.80;;
45863;SDS011;31579;52.354;16.974;2022-08-18T14:15:10;16.10;;;11.10;;
45863;SDS011;31579;52.354;16.974;2022-08-18T14:20:09;16.10;;;11.10;;
45863;SDS011;31579;52.354;16.974;2022-08-18T14:25:13;12.00;;;10.80;;
45863;SDS011;31579;52.354;16.974;2022-08-18T14:30:10;12.00;;;10.80;;
45863;SDS011;31579;52.354;16.974;2022-08-18T14:35:10;16.30;;;12.00;;
45863;SDS011;31579;52.354;16.974;2022-08-18T14:40:11;16.30;;;12.00;;
45863;SDS011;31579;52.354;16.974;2022-08-18T14:45:09;13.40;;;10.80;;
45863;SDS011;31579;52.354;16.974;2022-08-18T14:50:09;13.40;;;10.80;;
45863;SDS011;31579;52.354;16.974;2022-08-18T14:55:09;13.50;;;9.80;;
45863;SDS011;31579;52.354;16.974;2022-08-18T15:00:11;13.50;;;9.80;;
45863;SDS011;31579;52.354;16.974;2022-08-18T15:01:27;13.50;;;9.80;;
45863;SDS011;31579;52.354;16.974;2022-08-18T15:06:26;13.80;;;10.00;;
45863;SDS011;31579;52.354;16.974;2022-08-18T15:10:09;13.80;;;10.00;;
45863;SDS011;31579;52.354;16.974;2022-08-18T15:15:07;11.60;;;10.40;;
45863;SDS011;31579;52.354;16.974;2022-08-18T15:20:07;11.60;;;10.40;;
45863;SDS011;31579;52.354;16.974;2022-08-18T15:25:06;12.40;;;9.50;;
45863;SDS011;31579;52.354;16.974;2022-08-18T15:30:07;12.40;;;9.50;;
45863;SDS011;31579;52.354;16.974;2022-08-18T15:35:06;11.40;;;9.40;;
45863;SDS011;31579;52.354;16.974;2022-08-18T15:40:10;11.40;;;9.40;;
45863;SDS011;31579;52.354;16.974;2022-08-18T15:45:06;14.00;;;10.50;;
45863;SDS011;31579;52.354;16.974;2022-08-18T15:50:06;14.00;;;10.50;;
45863;SDS011;31579;52.354;16.974;2022-08-18T15:55:09;12.60;;;10.30;;
45863;SDS011;31579;52.354;16.974;2022-08-18T16:00:06;12.60;;;10.30;;
45863;SDS011;31579;52.354;16.974;2022-08-18T16:05:06;13.30;;;10.50;;
45863;SDS011;31579;52.354;16.974;2022-08-18T16:10:06;13.30;;;10.50;;
45863;SDS011;31579;52.354;16.974;2022-08-18T16:15:06;12.50;;;9.40;;
45863;SDS011;31579;52.354;16.974;2022-08-18T16:20:06;12.50;;;9.40;;
45863;SDS011;31579;52.354;16.974;2022-08-18T16:25:06;10.90;;;9.80;;
45863;SDS011;31579;52.354;16.974;2022-08-18T16:30:06;10.90;;;9.80;;
45863;SDS011;31579;52.354;16.974;2022-08-18T16:35:06;12.30;;;9.90;;
45863;SDS011;31579;52.354;16.974;2022-08-18T16:40:06;12.30;;;9.90;;
45863;SDS011;31579;52.354;16.974;2022-08-18T16:45:11;13.00;;;10.00;;
45863;SDS011;31579;52.354;16.974;2022-08-18T16:50:11;13.00;;;10.00;;
45863;SDS011;31579;52.354;16.974;2022-08-18T16:55:06;12.40;;;9.10;;
45863;SDS011;31579;52.354;16.974;2022-08-18T17:00:08;12.40;;;9.10;;
45863;SDS011;31579;52.354;16.974;2022-08-18T17:05:06;13.10;;;9.20;;
45863;SDS011;31579;52.354;16.974;2022-08-18T17:10:06;13.10;;;9.20;;
45863;SDS011;31579;52.354;16.974;2022-08-18T17:15:06;12.30;;;9.30;;
45863;SDS011;31579;52.354;16.974;2022-08-18T17:16:04;12.30;;;9.30;;
45863;SDS011;31579;52.354;16.974;2022-08-18T17:21:06;12.30;;;9.30;;
45863;SDS011;31579;52.354;16.974;2022-08-18T17:26:02;15.10;;;9.50;;
45863;SDS011;31579;52.354;16.974;2022-08-18T17:31:02;15.10;;;9.50;;
45863;SDS011;31579;52.354;16.974;2022-08-18T17:36:03;15.70;;;9.80;;
45863;SDS011;31579;52.354;16.974;2022-08-18T17:41:13;15.70;;;9.80;;
45863;SDS011;31579;52.354;16.974;2022-08-18T17:46:16;16.80;;;9.90;;
45863;SDS011;31579;52.354;16.974;2022-08-18T18:01:11;12.70;;;9.50;;
45863;SDS011;31579;52.354;16.974;2022-08-18T18:15:10;11.30;;;9.00;;
45863;SDS011;31579;52.354;16.974;2022-08-18T18:25:08;14.20;;;9.40;;
45863;SDS011;31579;52.354;16.974;2022-08-18T18:32:35;14.20;;;9.40;;
45863;SDS011;31579;52.354;16.974;2022-08-18T18:37:30;13.10;;;10.10;;
45863;SDS011;31579;52.354;16.974;2022-08-18T18:42:30;13.10;;;10.10;;
45863;SDS011;31579;52.354;16.974;2022-08-18T18:44:51;13.40;;;10.20;;
45863;SDS011;31579;52.354;16.974;2022-08-18T18:49:52;13.40;;;10.20;;
45863;SDS011;31579;52.354;16.974;2022-08-18T19:13:13;14.80;;;10.90;;
45863;SDS011;31579;52.354;16.974;2022-08-18T19:33:10;14.80;;;11.70;;
45863;SDS011;31579;52.354;16.974;2022-08-18T19:38:15;14.80;;;11.70;;
45863;SDS011;31579;52.354;16.974;2022-08-18T19:43:16;17.60;;;11.70;;
45863;SDS011;31579;52.354;16.974;2022-08-18T19:48:21;17.60;;;11.70;;
45863;SDS011;31579;52.354;16.974;2022-08-18T20:17:13;15.40;;;12.70;;
45863;SDS011;31579;52.354;16.974;2022-08-18T20:22:25;15.40;;;12.70;;
45863;SDS011;31579;52.354;16.974;2022-08-18T20:37:10;16.90;;;13.40;;
45863;SDS011;31579;52.354;16.974;2022-08-18T20:57:10;18.60;;;13.40;;
45863;SDS011;31579;52.354;16.974;2022-08-18T21:12:10;18.50;;;13.00;;
45863;SDS011;31579;52.354;16.974;2022-08-18T21:17:12;17.40;;;12.80;;
45863;SDS011;31579;52.354;16.974;2022-08-18T21:22:10;17.40;;;12.80;;
45863;SDS011;31579;52.354;16.974;2022-08-18T21:27:11;17.20;;;12.80;;
45863;SDS011;31579;52.354;16.974;2022-08-18T21:36:49;19.20;;;13.50;;
45863;SDS011;31579;52.354;16.974;2022-08-18T21:41:50;19.20;;;13.50;;
45863;SDS011;31579;52.354;16.974;2022-08-18T21:46:47;15.20;;;13.60;;
45863;SDS011;31579;52.354;16.974;2022-08-18T21:49:04;15.20;;;13.60;;
45863;SDS011;31579;52.354;16.974;2022-08-18T21:54:02;16.30;;;13.80;;
45863;SDS011;31579;52.354;16.974;2022-08-18T22:09:13;19.50;;;14.00;;
45863;SDS011;31579;52.354;16.974;2022-08-18T22:25:10;17.90;;;13.80;;
45863;SDS011;31579;52.354;16.974;2022-08-18T22:30:10;17.90;;;13.80;;
45863;SDS011;31579;52.354;16.974;2022-08-18T22:35:10;18.90;;;14.40;;
45863;SDS011;31579;52.354;16.974;2022-08-18T22:40:23;18.90;;;14.40;;
45863;SDS011;31579;52.354;16.974;2022-08-18T22:44:52;18.80;;;13.90;;
45863;SDS011;31579;52.354;16.974;2022-08-18T22:49:51;18.80;;;13.90;;
45863;SDS011;31579;52.354;16.974;2022-08-18T22:52:42;18.80;;;13.90;;
45863;SDS011;31579;52.354;16.974;2022-08-18T22:57:36;18.80;;;13.90;;
45863;SDS011;31579;52.354;16.974;2022-08-18T23:02:35;18.80;;;13.90;;
45863;SDS011;31579;52.354;16.974;2022-08-18T23:07:35;16.50;;;14.30;;
45863;SDS011;31579;52.354;16.974;2022-08-18T23:12:35;16.50;;;14.30;;
45863;SDS011;31579;52.354;16.974;2022-08-18T23:13:05;16.30;;;14.50;;
45863;SDS011;31579;52.354;16.974;2022-08-18T23:18:03;16.30;;;14.50;;
45863;SDS011;31579;52.354;16.974;2022-08-18T23:23:03;18.00;;;14.10;;
45863;SDS011;31579;52.354;16.974;2022-08-18T23:28:05;18.00;;;14.10;;
45863;SDS011;31579;52.354;16.974;2022-08-18T23:33:03;24.20;;;14.40;;
45863;SDS011;31579;52.354;16.974;2022-08-18T23:38:03;24.20;;;14.40;;
45863;SDS011;31579;52.354;16.974;2022-08-18T23:43:04;18.00;;;14.60;;
45863;SDS011;31579;52.354;16.974;2022-08-18T23:48:04;18.00;;;14.60;;
45863;SDS011;31579;52.354;16.974;2022-08-18T23:53:03;18.70;;;14.70;;
45863;SDS011;31579;52.354;16.974;2022-08-18T23:58:04;18.70;;;14.70;;
